Weather reports worldwide

Advertisment
Monte Settepani, Italy (16111): temperature & dewpoint: 11.08.2018 01:00:00 - 17.08.2018 01:00:00 (CEST)Monte Settepani, Italy (16111): wind speed: 11.08.2018 01:00:00 - 17.08.2018 01:00:00 (CEST)Monte Settepani, Italy (16111): wind direction: 11.08.2018 01:00:00 - 17.08.2018 01:00:00 (CEST)Monte Settepani, Italy (16111): precipitation: 11.08.2018 01:00:00 - 17.08.2018 01:00:00 (CEST)
Date & Time tt [°C] td [°C] ff [km/h] ff [kn] dd rr [mm]
17.08.2018 01:00:00 15,7 14,3 4 2 SW -
17.08.2018 00:00:00 15,7 14,2 4 2 SW -
16.08.2018 23:00:00 16,0 14,1 4 2 WSW -
16.08.2018 22:00:00 16,4 14,0 4 2 WSW -
16.08.2018 21:00:00 16,8 14,0 5 3 S -
16.08.2018 20:00:00 17,3 14,5 5 3 S -
16.08.2018 19:00:00 20,2 16,2 2 1 N -
16.08.2018 18:00:00 20,2 16,0 0 0 N -
16.08.2018 17:00:00 21,0 15,5 4 2 S -
16.08.2018 16:00:00 20,2 13,1 4 2 NE -
16.08.2018 15:00:00 19,5 14,7 4 2 NNE -
16.08.2018 14:00:00 20,7 16,2 4 2 SSE 0,0
16.08.2018 13:00:00 19,9 16,7 5 3 WNW -
16.08.2018 12:00:00 18,9 18,0 8 4 N -
16.08.2018 11:00:00 17,6 17,4 9 5 NNW -
16.08.2018 10:00:00 15,0 14,8 16 9 NNW -
16.08.2018 09:00:00 15,7 14,7 22 12 NNW -
16.08.2018 08:00:00 15,5 13,3 22 12 NNW 0,0
16.08.2018 07:00:00 14,8 12,5 16 9 NW -
16.08.2018 06:00:00 14,0 12,2 9 5 NNW -
16.08.2018 05:00:00 14,2 12,4 13 7 NNE -
16.08.2018 04:00:00 14,3 12,7 13 7 NNE -
16.08.2018 03:00:00 14,6 12,6 11 6 N -
16.08.2018 02:00:00 14,7 12,7 8 4 NNW 0,0
16.08.2018 01:00:00 14,7 12,8 8 4 NNE -
16.08.2018 00:00:00 14,8 13,1 11 6 N -
15.08.2018 23:00:00 15,5 12,9 11 6 N -
15.08.2018 22:00:00 15,8 13,2 15 8 NNW -
15.08.2018 21:00:00 15,9 13,8 16 9 N -
15.08.2018 20:00:00 16,4 14,0 13 7 N 0,0
15.08.2018 19:00:00 17,8 14,0 13 7 NNE -
15.08.2018 18:00:00 18,9 14,5 15 8 N -
15.08.2018 17:00:00 20,1 16,7 8 4 N -
15.08.2018 16:00:00 19,2 16,0 9 5 NNE -
15.08.2018 15:00:00 19,7 17,0 9 5 N -
15.08.2018 14:00:00 18,5 16,6 9 5 NNW 0,0
15.08.2018 13:00:00 17,9 17,5 9 5 WNW -
15.08.2018 12:00:00 16,4 16,2 11 6 NW -
15.08.2018 11:00:00 16,5 16,3 15 8 N -
15.08.2018 10:00:00 15,0 14,9 18 10 NW -
15.08.2018 09:00:00 14,5 - 13 7 NNW -
15.08.2018 08:00:00 13,7 - 18 10 N -
15.08.2018 07:00:00 14,1 - 26 14 NNW -
15.08.2018 06:00:00 13,7 13,6 26 14 NNW -
15.08.2018 05:00:00 14,2 14,1 18 10 N -
15.08.2018 04:00:00 14,6 14,5 16 9 NNW -
15.08.2018 03:00:00 14,5 14,4 16 9 N -
15.08.2018 02:00:00 14,8 14,7 24 13 N -
15.08.2018 01:00:00 14,9 14,8 24 13 NNW -
15.08.2018 00:00:00 15,2 15,1 29 16 N -
14.08.2018 23:00:00 15,1 15,0 28 15 NNW -
14.08.2018 22:00:00 15,1 15,0 22 12 NNW -
14.08.2018 21:00:00 15,1 15,0 24 13 NNW -
14.08.2018 20:00:00 15,2 15,1 15 8 NW 0,0
14.08.2018 19:00:00 15,9 15,7 5 3 NNW -
14.08.2018 18:00:00 16,3 16,2 9 5 NNW -
14.08.2018 17:00:00 15,2 15,1 8 4 NNW -
14.08.2018 16:00:00 15,9 15,7 18 10 WNW -
14.08.2018 15:00:00 18,5 18,3 15 8 E -
14.08.2018 14:00:00 17,5 17,3 13 7 N 0,0
14.08.2018 13:00:00 15,8 15,7 16 9 NNE -
14.08.2018 12:00:00 16,7 - 8 4 ENE -
14.08.2018 11:00:00 14,1 - 13 7 N -
14.08.2018 10:00:00 13,3 - 16 9 NNE -
14.08.2018 09:00:00 14,1 - 9 5 NE -
14.08.2018 08:00:00 14,1 - 8 4 N -
14.08.2018 07:00:00 14,2 - 8 4 NE -
14.08.2018 06:00:00 13,7 13,6 11 6 S -
14.08.2018 05:00:00 14,3 - 5 3 ESE -
14.08.2018 04:00:00 14,5 - 8 4 SSE -
14.08.2018 03:00:00 14,4 14,3 9 5 SSE -
14.08.2018 02:00:00 14,4 14,3 9 5 S -
14.08.2018 01:00:00 15,5 15,4 4 2 ESE -
14.08.2018 00:00:00 15,2 15,1 8 4 W -
13.08.2018 23:00:00 14,9 14,8 18 10 NW -
13.08.2018 22:00:00 15,2 15,1 13 7 WNW -
13.08.2018 21:00:00 15,6 15,5 8 4 W -
13.08.2018 20:00:00 16,8 16,7 4 2 WSW -
13.08.2018 19:00:00 17,3 17,2 8 4 SW -
13.08.2018 18:00:00 17,8 17,7 5 3 S -
13.08.2018 17:00:00 16,8 16,7 9 5 SW -
13.08.2018 16:00:00 17,0 16,9 9 5 S -
13.08.2018 15:00:00 17,0 16,9 8 4 WSW -
13.08.2018 14:00:00 14,9 - 11 6 S -
13.08.2018 13:00:00 14,6 - 5 3 S -
13.08.2018 12:00:00 15,5 - 11 6 S -
13.08.2018 11:00:00 15,4 - 15 8 WSW -
13.08.2018 10:00:00 15,2 - 16 9 SSW -
13.08.2018 09:00:00 15,7 - 9 5 S -
13.08.2018 08:00:00 15,3 - 8 4 SSE 0,0
13.08.2018 07:00:00 14,9 - 2 1 SSW -
13.08.2018 06:00:00 15,4 15,3 5 3 WSW -
13.08.2018 05:00:00 14,6 14,5 13 7 W -
13.08.2018 04:00:00 15,4 - 15 8 W -
13.08.2018 03:00:00 15,7 15,6 16 9 WNW -
13.08.2018 02:00:00 16,0 15,9 9 5 WNW 0,0
13.08.2018 01:00:00 15,8 15,7 4 2 W -
13.08.2018 00:00:00 15,9 15,8 5 3 WSW -
12.08.2018 23:00:00 17,0 16,9 5 3 WNW -
12.08.2018 22:00:00 15,7 15,6 11 6 SSW -
12.08.2018 21:00:00 15,8 15,7 15 8 S -
12.08.2018 20:00:00 16,6 16,5 9 5 S 0,0
12.08.2018 19:00:00 17,8 17,7 8 4 SSW -
12.08.2018 18:00:00 18,2 18,0 5 3 S -
12.08.2018 17:00:00 18,7 18,6 9 5 S -
12.08.2018 16:00:00 18,1 18,0 8 4 SSW -
12.08.2018 15:00:00 18,0 17,9 9 5 S -
12.08.2018 14:00:00 17,4 17,3 5 3 SE 0,0
12.08.2018 13:00:00 18,6 18,4 4 2 SE -
12.08.2018 12:00:00 18,1 17,6 4 2 ENE -
12.08.2018 11:00:00 19,9 19,5 4 2 E -
12.08.2018 10:00:00 18,6 18,4 5 3 NE -
12.08.2018 09:00:00 17,8 17,6 4 2 NW -
12.08.2018 08:00:00 16,3 16,2 9 5 NNW 0,0
12.08.2018 07:00:00 15,0 12,7 9 5 NNW -
12.08.2018 06:00:00 15,4 15,2 8 4 N -
12.08.2018 05:00:00 15,9 15,7 8 4 NNW -
12.08.2018 04:00:00 16,4 16,3 9 5 NW -
12.08.2018 03:00:00 16,7 16,5 5 3 N -
12.08.2018 02:00:00 16,0 15,9 4 2 SSW 0,0
12.08.2018 01:00:00 15,7 15,6 9 5 S -
12.08.2018 00:00:00 15,7 15,6 11 6 SSW -
11.08.2018 23:00:00 15,3 15,2 11 6 S -
11.08.2018 22:00:00 15,9 15,7 11 6 S -
11.08.2018 21:00:00 16,3 16,2 11 6 SSW -
11.08.2018 20:00:00 16,6 16,4 8 4 S 0,0
11.08.2018 19:00:00 18,0 17,5 13 7 S -
11.08.2018 18:00:00 18,7 17,7 13 7 SE -
11.08.2018 17:00:00 19,6 18,7 13 7 SSW -
11.08.2018 16:00:00 20,8 19,9 9 5 S -
11.08.2018 15:00:00 20,0 19,3 8 4 ESE -
11.08.2018 14:00:00 19,0 18,6 5 3 N 0,0
11.08.2018 13:00:00 19,2 18,8 8 4 NW -
11.08.2018 12:00:00 19,2 19,1 8 4 N -
11.08.2018 11:00:00 18,6 18,5 9 5 NNE -
11.08.2018 10:00:00 17,6 - 8 4 N -
11.08.2018 09:00:00 16,5 - 11 6 N -
11.08.2018 08:00:00 15,8 - 11 6 NNW -
11.08.2018 07:00:00 15,6 - 11 6 N -
11.08.2018 06:00:00 15,6 - 9 5 NNE -
11.08.2018 05:00:00 15,7 - 9 5 N -
11.08.2018 04:00:00 15,6 15,5 4 2 NNE -
11.08.2018 03:00:00 16,0 15,9 4 2 E -
11.08.2018 02:00:00 17,2 17,1 0 0 N -
11.08.2018 01:00:00 17,3 17,2 0 0 N -

tt = temperature
td = dewpoint
ff = wind speed
dd = wind direction
rr = precipitation

Next stations